createdAt,value
2022-09-26T00:02:24.309Z,20.50
2022-09-26T00:04:59.331Z,20.50
2022-09-26T00:07:36.539Z,20.50
2022-09-26T00:10:12.150Z,20.70
2022-09-26T00:12:47.055Z,20.70
2022-09-26T00:15:21.920Z,20.80
2022-09-26T00:17:56.517Z,20.80
2022-09-26T00:20:31.591Z,20.70
2022-09-26T00:23:08.633Z,20.80
2022-09-26T00:25:49.387Z,20.90
2022-09-26T00:28:24.737Z,20.90
2022-09-26T00:30:59.983Z,20.90
2022-09-26T00:33:35.129Z,20.80
2022-09-26T00:36:11.413Z,20.90
2022-09-26T00:38:48.462Z,21.00
2022-09-26T00:41:23.008Z,20.90
2022-09-26T00:43:58.904Z,21.00
2022-09-26T00:46:40.098Z,21.00
2022-09-26T00:49:23.090Z,21.00
2022-09-26T00:52:01.210Z,21.10
2022-09-26T00:54:42.623Z,21.10
2022-09-26T00:57:20.428Z,21.20
2022-09-26T00:59:59.952Z,21.10
2022-09-26T01:02:34.956Z,21.10
2022-09-26T01:05:14.618Z,21.10
2022-09-26T01:07:56.059Z,21.10
2022-09-26T01:10:36.623Z,21.10
2022-09-26T01:13:13.132Z,21.10
2022-09-26T01:15:52.098Z,21.10
2022-09-26T01:18:27.013Z,21.20
2022-09-26T01:21:11.120Z,21.20
2022-09-26T01:24:18.465Z,21.30
2022-09-26T01:27:20.265Z,21.30
2022-09-26T01:30:17.413Z,21.30
2022-09-26T01:33:18.279Z,21.30
2022-09-26T01:36:09.155Z,21.30
2022-09-26T01:38:54.930Z,21.30
2022-09-26T01:41:48.494Z,21.30
2022-09-26T01:44:35.327Z,21.40
2022-09-26T01:47:18.474Z,21.40
2022-09-26T01:49:59.402Z,21.40
2022-09-26T01:52:40.439Z,21.50
2022-09-26T01:55:18.718Z,21.60
2022-09-26T01:57:57.201Z,21.60
2022-09-26T02:00:33.537Z,21.60
2022-09-26T02:03:14.413Z,21.50
2022-09-26T02:05:52.821Z,21.30
2022-09-26T02:08:32.313Z,21.40
2022-09-26T02:11:13.683Z,21.30
2022-09-26T02:13:57.140Z,21.40
2022-09-26T02:28:47.734Z,21.50
2022-09-26T02:31:31.198Z,21.60
2022-09-26T02:48:45.579Z,22.20
2022-09-26T02:51:40.656Z,22.30
2022-09-26T02:54:26.215Z,22.50
2022-09-26T02:57:22.283Z,22.40
2022-09-26T03:00:06.903Z,22.50
2022-09-26T03:02:47.443Z,22.50
2022-09-26T03:05:28.087Z,22.50
2022-09-26T03:08:13.924Z,22.30
2022-09-26T03:10:51.718Z,22.00
2022-09-26T03:13:31.290Z,21.90
2022-09-26T03:16:15.889Z,21.90
2022-09-26T03:19:05.641Z,22.00
2022-09-26T03:21:43.520Z,22.10
2022-09-26T03:24:21.852Z,22.00
2022-09-26T03:27:06.480Z,21.80
2022-09-26T03:29:46.725Z,21.70
2022-09-26T03:32:27.725Z,21.70
2022-09-26T03:35:04.382Z,21.80
2022-09-26T03:37:42.781Z,21.80
2022-09-26T03:40:18.385Z,21.80
2022-09-26T03:43:20.438Z,21.90
2022-09-26T03:46:01.298Z,21.70
2022-09-26T03:48:45.742Z,21.50
2022-09-26T03:51:23.585Z,21.50
2022-09-26T03:54:02.787Z,21.50
2022-09-26T03:56:38.300Z,21.40
2022-09-26T03:59:25.832Z,21.50
2022-09-26T04:02:07.431Z,21.50
2022-09-26T04:04:56.745Z,21.40
2022-09-26T04:07:36.010Z,21.40
2022-09-26T04:10:15.679Z,21.50
2022-09-26T04:13:03.201Z,21.30
2022-09-26T04:15:44.731Z,21.40
2022-09-26T04:18:28.950Z,21.40
2022-09-26T04:21:15.717Z,21.30
2022-09-26T04:24:07.843Z,21.20
2022-09-26T04:26:52.339Z,21.50
2022-09-26T04:29:35.317Z,21.70
2022-09-26T04:32:34.369Z,21.40
2022-09-26T04:35:35.260Z,21.30
2022-09-26T04:38:15.368Z,21.20
2022-09-26T04:40:56.604Z,21.20
2022-09-26T04:43:35.962Z,21.10
2022-09-26T04:46:21.693Z,21.20
2022-09-26T04:49:18.187Z,21.20
2022-09-26T04:52:08.824Z,21.20
2022-09-26T04:54:58.049Z,21.30
2022-09-26T04:57:37.767Z,21.20
2022-09-26T05:00:28.736Z,21.10
2022-09-26T05:03:14.389Z,21.20
2022-09-26T05:06:03.003Z,20.80
2022-09-26T05:08:39.560Z,20.80
2022-09-26T05:11:18.473Z,20.90
2022-09-26T05:13:56.078Z,20.80
2022-09-26T05:16:38.372Z,20.60
2022-09-26T05:19:20.438Z,20.70
2022-09-26T05:22:19.395Z,20.50
2022-09-26T05:25:15.192Z,20.60
2022-09-26T05:27:55.753Z,20.60
2022-09-26T05:30:35.978Z,20.70
2022-09-26T05:33:21.322Z,20.70
2022-09-26T05:36:05.184Z,20.50
2022-09-26T05:38:45.898Z,20.50
2022-09-26T05:41:24.340Z,20.50
2022-09-26T05:44:01.633Z,20.40
2022-09-26T05:46:53.789Z,20.40
2022-09-26T05:49:34.371Z,20.50
2022-09-26T05:52:24.204Z,20.40
2022-09-26T05:55:07.176Z,20.20
2022-09-26T05:58:07.115Z,20.10
2022-09-26T06:01:14.999Z,20.00
2022-09-26T06:03:57.713Z,20.00
2022-09-26T06:06:38.014Z,20.00
2022-09-26T06:09:22.045Z,20.00
2022-09-26T06:12:32.937Z,20.10
2022-09-26T06:15:16.976Z,20.30
2022-09-26T06:18:11.767Z,20.40
2022-09-26T06:20:56.608Z,20.60
2022-09-26T06:23:41.798Z,20.90
2022-09-26T06:26:24.185Z,20.90
2022-09-26T06:29:06.194Z,21.10
2022-09-26T06:31:48.843Z,21.10
2022-09-26T06:34:48.929Z,21.10
2022-09-26T06:37:49.197Z,21.10
2022-09-26T06:40:41.925Z,21.20
2022-09-26T06:43:18.637Z,21.10
2022-09-26T06:46:22.612Z,21.20
2022-09-26T06:49:14.590Z,21.00
2022-09-26T06:51:56.854Z,20.90
2022-09-26T06:54:36.235Z,21.00
2022-09-26T06:57:36.051Z,21.00
2022-09-26T07:00:29.354Z,21.10
2022-09-26T07:03:32.181Z,21.10
2022-09-26T07:06:31.835Z,21.10
2022-09-26T07:09:12.537Z,21.20
2022-09-26T07:12:17.656Z,21.00
2022-09-26T07:14:57.789Z,20.90
2022-09-26T07:17:37.561Z,20.90
2022-09-26T07:20:41.700Z,20.80
2022-09-26T07:23:48.304Z,20.90
2022-09-26T07:26:27.748Z,21.00
2022-09-26T07:29:14.978Z,20.90
2022-09-26T07:31:55.214Z,21.00
2022-09-26T07:34:53.832Z,21.00
2022-09-26T07:37:35.437Z,20.80
2022-09-26T07:40:14.510Z,20.80
2022-09-26T07:43:15.258Z,20.90
2022-09-26T07:46:07.467Z,21.00
2022-09-26T07:48:58.841Z,20.90
2022-09-26T07:51:52.990Z,21.00
2022-09-26T07:54:32.810Z,21.00
2022-09-26T07:57:40.167Z,20.90
2022-09-26T08:00:42.883Z,20.80
2022-09-26T08:03:47.435Z,20.70
2022-09-26T08:06:40.868Z,20.70
2022-09-26T08:09:21.636Z,20.80
2022-09-26T08:12:21.278Z,20.80
2022-09-26T08:15:16.127Z,20.70
2022-09-26T08:18:03.552Z,20.70
2022-09-26T08:20:39.475Z,20.80
2022-09-26T08:23:17.910Z,20.80
2022-09-26T08:26:03.276Z,20.70
2022-09-26T08:29:02.100Z,20.80
2022-09-26T08:31:39.996Z,20.70
2022-09-26T08:34:19.285Z,20.70
2022-09-26T08:37:16.941Z,20.60
2022-09-26T08:40:12.355Z,20.50
2022-09-26T08:43:19.867Z,20.50
2022-09-26T08:46:47.247Z,20.50
2022-09-26T08:50:03.234Z,20.50
2022-09-26T08:52:57.088Z,20.60
2022-09-26T08:55:37.738Z,20.60
2022-09-26T08:58:29.054Z,20.50
2022-09-26T09:01:17.270Z,20.70
2022-09-26T09:04:39.110Z,20.70
2022-09-26T09:07:26.636Z,20.70
2022-09-26T09:10:10.208Z,20.80
2022-09-26T09:13:25.056Z,20.80
2022-09-26T09:16:33.584Z,20.80
2022-09-26T09:19:39.080Z,20.90
2022-09-26T09:22:52.552Z,20.90
2022-09-26T09:25:40.438Z,21.00
2022-09-26T09:28:35.822Z,20.90
2022-09-26T09:31:29.768Z,20.80
2022-09-26T09:34:55.678Z,20.80
2022-09-26T09:38:11.779Z,20.60
2022-09-26T09:41:06.235Z,20.70
2022-09-26T09:43:47.491Z,20.60
2022-09-26T09:46:33.236Z,20.50
2022-09-26T09:49:24.625Z,20.30
2022-09-26T09:52:22.366Z,20.30
2022-09-26T09:55:12.885Z,20.30
2022-09-26T09:58:05.966Z,20.30
2022-09-26T10:00:52.972Z,20.30
2022-09-26T10:03:44.675Z,20.40
2022-09-26T10:06:44.164Z,20.30
2022-09-26T10:09:38.418Z,20.20
2022-09-26T10:12:40.595Z,20.20
2022-09-26T10:15:38.184Z,20.10
2022-09-26T10:18:30.344Z,20.20
2022-09-26T10:21:19.186Z,20.20
2022-09-26T10:23:59.436Z,20.20
2022-09-26T10:26:52.605Z,20.20
2022-09-26T10:29:43.856Z,20.30
2022-09-26T10:32:24.599Z,20.30
2022-09-26T10:35:22.256Z,20.30
2022-09-26T10:38:21.173Z,20.20
2022-09-26T10:41:05.412Z,20.30
2022-09-26T10:43:59.036Z,20.20
2022-09-26T10:46:58.844Z,20.20
2022-09-26T10:49:47.899Z,20.20
2022-09-26T10:52:49.682Z,20.10
2022-09-26T10:55:34.328Z,20.20
2022-09-26T10:58:27.666Z,20.20
2022-09-26T11:01:10.401Z,20.30
2022-09-26T11:03:51.150Z,20.30
2022-09-26T11:06:41.989Z,20.30
2022-09-26T11:09:45.931Z,20.30
2022-09-26T11:13:11.369Z,20.40
2022-09-26T11:16:08.377Z,20.30
2022-09-26T11:19:04.989Z,20.30
2022-09-26T11:21:50.684Z,20.20
2022-09-26T11:24:33.108Z,20.10
2022-09-26T11:27:26.056Z,20.10
2022-09-26T11:30:11.482Z,20.10
2022-09-26T11:32:56.794Z,20.10
2022-09-26T11:36:02.151Z,20.00
2022-09-26T11:38:49.461Z,20.00
2022-09-26T11:41:43.652Z,19.90
2022-09-26T11:44:45.918Z,19.90
2022-09-26T11:48:00.594Z,19.80
2022-09-26T11:51:15.572Z,19.70
2022-09-26T11:54:08.164Z,19.80
2022-09-26T11:56:59.375Z,19.60
2022-09-26T12:00:07.652Z,19.70
2022-09-26T12:03:17.883Z,19.70
2022-09-26T12:06:03.293Z,19.60
2022-09-26T12:09:04.224Z,19.50
2022-09-26T12:11:56.488Z,19.50
2022-09-26T12:14:47.937Z,19.50
2022-09-26T12:17:38.587Z,19.50
2022-09-26T12:20:49.762Z,19.50
2022-09-26T12:23:34.706Z,19.50
2022-09-26T12:26:26.765Z,19.50
2022-09-26T12:29:35.672Z,19.40
2022-09-26T12:32:29.952Z,19.40
2022-09-26T12:35:32.734Z,19.50
2022-09-26T12:38:38.262Z,19.50
2022-09-26T12:41:49.323Z,19.50
2022-09-26T12:44:50.808Z,19.50
2022-09-26T12:47:48.383Z,19.50
2022-09-26T12:50:49.078Z,19.50
2022-09-26T12:53:55.197Z,19.50
2022-09-26T12:56:52.988Z,19.40
2022-09-26T13:00:11.948Z,19.50
2022-09-26T13:03:23.656Z,19.50
2022-09-26T13:06:32.521Z,19.40
2022-09-26T13:09:24.761Z,19.30
2022-09-26T13:12:20.349Z,19.30
2022-09-26T13:15:32.995Z,19.30
2022-09-26T13:18:26.671Z,19.30
2022-09-26T13:21:11.519Z,19.30
2022-09-26T13:23:59.376Z,19.30
2022-09-26T13:26:46.717Z,19.30
2022-09-26T13:29:32.597Z,19.30
2022-09-26T13:32:35.336Z,19.30
2022-09-26T13:35:24.474Z,19.20
2022-09-26T13:38:45.199Z,19.10
2022-09-26T13:41:57.446Z,19.10
2022-09-26T13:44:50.581Z,19.10
2022-09-26T13:47:55.789Z,19.10
2022-09-26T13:50:44.045Z,19.00
2022-09-26T13:53:33.343Z,19.10
2022-09-26T13:56:47.459Z,19.10
2022-09-26T13:59:40.055Z,19.10
2022-09-26T14:02:52.065Z,19.10
2022-09-26T14:05:55.130Z,19.00
2022-09-26T14:08:55.053Z,19.00
2022-09-26T14:11:52.886Z,18.90
2022-09-26T14:14:51.130Z,18.90
2022-09-26T14:18:19.702Z,19.00
2022-09-26T14:21:29.812Z,19.00
2022-09-26T14:24:45.486Z,19.00
2022-09-26T14:27:52.127Z,18.90
2022-09-26T14:31:32.862Z,18.80
2022-09-26T14:34:30.239Z,18.80
2022-09-26T14:38:11.356Z,18.80
2022-09-26T14:41:05.902Z,18.90
2022-09-26T14:43:48.320Z,18.80
2022-09-26T14:46:44.545Z,18.70
2022-09-26T14:49:36.711Z,18.80
2022-09-26T14:52:41.984Z,18.80
2022-09-26T14:55:25.515Z,18.70
2022-09-26T14:58:46.615Z,18.70
2022-09-26T15:01:36.209Z,18.60
2022-09-26T15:04:25.217Z,18.70
2022-09-26T15:07:10.554Z,18.70
2022-09-26T15:10:10.979Z,18.70
2022-09-26T15:13:04.428Z,18.70
2022-09-26T15:15:55.681Z,18.60
2022-09-26T15:18:41.176Z,18.70
2022-09-26T15:21:36.793Z,18.70
2022-09-26T15:24:36.949Z,18.60
2022-09-26T15:27:31.020Z,18.50
2022-09-26T15:30:24.037Z,18.60
2022-09-26T15:33:24.908Z,18.60
2022-09-26T15:36:10.996Z,18.60
2022-09-26T15:38:52.520Z,18.50
2022-09-26T15:41:52.344Z,18.60
2022-09-26T15:44:33.094Z,18.60
2022-09-26T15:47:43.558Z,18.60
2022-09-26T15:50:26.867Z,18.50
2022-09-26T15:53:06.488Z,18.60
2022-09-26T15:56:00.203Z,18.60
2022-09-26T15:58:55.336Z,18.60
2022-09-26T16:01:43.777Z,18.60
2022-09-26T16:04:32.913Z,18.70
2022-09-26T16:07:24.100Z,18.60
2022-09-26T16:10:08.816Z,18.50
2022-09-26T16:12:50.144Z,18.50
2022-09-26T16:15:32.930Z,18.50
2022-09-26T16:18:45.524Z,18.40
2022-09-26T16:21:29.369Z,18.40
2022-09-26T16:24:30.897Z,18.50
2022-09-26T16:27:09.103Z,18.50
2022-09-26T16:29:51.593Z,18.40
2022-09-26T16:32:38.880Z,18.40
2022-09-26T16:35:40.172Z,18.40
2022-09-26T16:38:35.420Z,18.40
2022-09-26T16:41:42.060Z,18.30
2022-09-26T16:44:34.863Z,18.30
2022-09-26T16:47:45.949Z,18.30
2022-09-26T16:50:38.107Z,18.30
2022-09-26T16:53:18.724Z,18.30
2022-09-26T16:55:56.714Z,18.20
2022-09-26T16:58:40.827Z,18.20
2022-09-26T17:01:33.298Z,18.20
2022-09-26T17:04:26.213Z,18.20
2022-09-26T17:07:09.573Z,18.20
2022-09-26T17:09:49.648Z,18.20
2022-09-26T17:12:30.602Z,18.10
2022-09-26T17:15:13.904Z,18.10
2022-09-26T17:17:55.591Z,18.20
2022-09-26T17:20:33.168Z,18.10
2022-09-26T17:23:39.535Z,18.00
2022-09-26T17:26:27.787Z,18.00
2022-09-26T17:29:05.759Z,18.00
2022-09-26T17:31:43.743Z,18.00
2022-09-26T17:34:27.489Z,18.00
2022-09-26T17:37:06.258Z,18.10
2022-09-26T17:39:48.193Z,18.10
2022-09-26T17:42:34.681Z,18.10
2022-09-26T17:45:20.814Z,18.10
2022-09-26T17:47:57.599Z,18.10
2022-09-26T17:50:37.151Z,18.20
2022-09-26T17:53:18.217Z,18.20
2022-09-26T17:55:58.922Z,18.10
2022-09-26T17:58:39.598Z,18.20
2022-09-26T18:01:23.582Z,18.10
2022-09-26T18:04:02.306Z,18.00
2022-09-26T18:06:41.457Z,18.00
2022-09-26T18:09:19.715Z,18.00
2022-09-26T18:12:04.514Z,18.00
2022-09-26T18:14:43.026Z,18.00
2022-09-26T18:17:21.167Z,17.90
2022-09-26T18:19:57.015Z,18.00
2022-09-26T18:22:34.523Z,17.90
2022-09-26T18:25:11.859Z,18.00
2022-09-26T18:27:51.941Z,18.00
2022-09-26T18:30:29.929Z,18.10
2022-09-26T18:33:07.532Z,18.10
2022-09-26T18:35:45.931Z,18.20
2022-09-26T18:38:24.477Z,18.20
2022-09-26T18:41:02.909Z,18.30
2022-09-26T18:43:43.672Z,18.30
2022-09-26T18:46:20.009Z,18.30
2022-09-26T18:48:59.647Z,18.40
2022-09-26T18:51:35.189Z,18.40
2022-09-26T18:54:13.741Z,18.40
2022-09-26T18:57:04.499Z,18.40
2022-09-26T18:59:42.340Z,18.40
2022-09-26T19:02:25.981Z,18.40
2022-09-26T19:05:04.019Z,18.50
2022-09-26T19:07:38.628Z,18.40
2022-09-26T19:10:21.248Z,18.40
2022-09-26T19:12:56.830Z,18.40
2022-09-26T19:15:34.086Z,18.30
2022-09-26T19:18:08.936Z,18.40
2022-09-26T19:20:43.797Z,18.50
2022-09-26T19:23:19.339Z,18.40
2022-09-26T19:25:54.667Z,18.60
2022-09-26T19:28:32.463Z,18.60
2022-09-26T19:31:09.888Z,18.60
2022-09-26T19:33:47.789Z,18.60
2022-09-26T19:36:23.937Z,18.60
2022-09-26T19:38:58.627Z,18.60
2022-09-26T19:41:38.918Z,18.60
2022-09-26T19:44:15.842Z,18.60
2022-09-26T19:46:52.596Z,18.70
2022-09-26T19:49:28.725Z,18.70
2022-09-26T19:52:04.504Z,18.70
2022-09-26T19:54:38.625Z,18.60
2022-09-26T19:57:21.810Z,18.70
2022-09-26T19:59:56.295Z,18.70
2022-09-26T20:02:38.277Z,18.70
2022-09-26T20:05:21.469Z,18.70
2022-09-26T20:07:56.343Z,18.80
2022-09-26T20:10:30.611Z,18.70
2022-09-26T20:13:05.115Z,18.60
2022-09-26T20:15:39.587Z,18.50
2022-09-26T20:18:19.819Z,18.40
2022-09-26T20:20:57.450Z,18.50
2022-09-26T20:23:31.734Z,18.50
2022-09-26T20:26:05.741Z,18.60
2022-09-26T20:28:40.405Z,18.70
2022-09-26T20:31:24.080Z,18.70
2022-09-26T20:34:00.456Z,18.70
2022-09-26T20:36:37.212Z,18.80
2022-09-26T20:39:15.476Z,18.70
2022-09-26T20:41:50.303Z,18.60
2022-09-26T20:44:29.117Z,18.60
2022-09-26T20:47:05.798Z,18.50
2022-09-26T20:49:47.831Z,18.50
2022-09-26T20:52:25.535Z,18.70
2022-09-26T20:55:00.510Z,18.80
2022-09-26T20:57:34.188Z,18.80
2022-09-26T21:00:08.975Z,18.80
2022-09-26T21:02:45.750Z,18.80
2022-09-26T21:05:26.514Z,18.80
2022-09-26T21:08:02.747Z,18.80
2022-09-26T21:10:37.577Z,18.90
2022-09-26T21:13:13.065Z,18.90
2022-09-26T21:15:47.678Z,18.90
2022-09-26T21:18:28.071Z,18.90
2022-09-26T21:21:08.022Z,18.90
2022-09-26T21:24:04.337Z,18.80
2022-09-26T21:26:38.336Z,18.80
2022-09-26T21:29:16.778Z,18.80
2022-09-26T21:31:54.860Z,18.70
2022-09-26T21:34:30.972Z,18.70
2022-09-26T21:37:08.221Z,18.70
2022-09-26T21:39:43.187Z,18.70
2022-09-26T21:42:18.205Z,18.70
2022-09-26T21:44:56.791Z,18.80
2022-09-26T21:47:31.496Z,18.80
2022-09-26T21:50:06.151Z,18.70
2022-09-26T21:52:46.296Z,18.80
2022-09-26T21:55:23.851Z,18.80
2022-09-26T21:57:59.462Z,18.70
2022-09-26T22:00:33.270Z,18.80
2022-09-26T22:03:07.978Z,18.80
2022-09-26T22:05:42.162Z,18.80
2022-09-26T22:08:17.760Z,18.70
2022-09-26T22:10:51.976Z,18.60
2022-09-26T22:13:26.144Z,18.70
2022-09-26T22:16:00.258Z,18.70
2022-09-26T22:18:34.432Z,18.80
2022-09-26T22:21:08.755Z,18.80
2022-09-26T22:23:45.344Z,18.80
2022-09-26T22:26:19.678Z,18.80
2022-09-26T22:28:54.300Z,18.80
2022-09-26T22:31:28.493Z,18.90
2022-09-26T22:34:04.261Z,18.80
2022-09-26T22:36:38.812Z,18.80
2022-09-26T22:39:16.150Z,18.80
2022-09-26T22:41:51.803Z,18.80
2022-09-26T22:44:30.199Z,18.80
2022-09-26T22:47:05.416Z,18.70
2022-09-26T22:49:40.433Z,18.80
2022-09-26T22:52:15.756Z,18.80
2022-09-26T22:54:53.220Z,18.70
2022-09-26T22:57:29.255Z,18.70
2022-09-26T23:00:04.471Z,18.70
2022-09-26T23:02:40.043Z,18.80
2022-09-26T23:05:17.462Z,18.80
2022-09-26T23:07:52.141Z,18.80
2022-09-26T23:10:29.320Z,18.80
2022-09-26T23:13:06.831Z,18.80
2022-09-26T23:15:41.697Z,18.80
2022-09-26T23:18:16.150Z,18.70
2022-09-26T23:20:51.461Z,18.80
2022-09-26T23:23:25.277Z,18.80
2022-09-26T23:26:01.912Z,18.70
2022-09-26T23:28:36.721Z,18.70
2022-09-26T23:31:12.662Z,18.70
2022-09-26T23:33:50.658Z,18.70
2022-09-26T23:36:27.138Z,18.70
2022-09-26T23:39:04.260Z,18.70
2022-09-26T23:41:41.796Z,18.70
2022-09-26T23:44:17.268Z,18.70
2022-09-26T23:46:52.626Z,18.80
2022-09-26T23:49:28.150Z,18.80
2022-09-26T23:52:04.092Z,18.80
2022-09-26T23:54:41.041Z,18.80
2022-09-26T23:57:18.750Z,18.80
2022-09-26T23:59:54.046Z,18.90
